CKF6 weather

Macgregor Airport
Macgregor, Manitoba, Canada

Public forecast

Using degrees Celsius for public forecast. Weather courtesy of forecast.io.

Closest aviation weather report (METAR) to Macgregor Airport

Closest report is Southport Airport, 18.8 nm (34.8 km) ESE. Retrieved 2019/11/15 23:00 UTC (1 hour ago):

CYPG 152300Z 12012G17KT 15SM BKN019 BKN100 M04/M07 A3017 RMK SC5AC2 LAST OBS/NEXT 181200 UTC SLP234

Closest aviation forecast (TAF) to Macgregor Airport

Closest forecast is Southport Airport, 18.8 nm (34.8 km) ESE. Retrieved 2019/11/15 18:33 UTC (6 hours ago):

TAF CYPG 151730Z 1518/1606 11010G20KT P6SM BKN025 BKN100 TEMPO 1518/1606 5SM -SN BKN020 OVC100 BECMG 1520/1522 14015G25KT RMK NXT FCST BY 160000Z